Metheringham, United Kingdom
Current Conditions -  °F | °C
As of 3:50 AM on Wednesday 26 Nov 2014 (Local Time) from EGXW Reporting Station
Light Rain Light Rain  
Wind Chill: 44°   Ceiling: 2000
Heat Index: 46°   Visibility: 6mi
Dew Point: 43°   Wind: 6mph
Humidity: 87%   Direction: 40°NE
Pressure: 29.97"   Gusts: NA
Location:  53.14°N, 0.4°W
Report Text: EGXW 260350Z 04005KT 9999 -RA SCT013 BKN020 OVC060 08/06 Q1015 GRN
Loading
Personal Weather Stations






























Interactive Weather Map New forecast layout! Learn more

10-Day Weather Forecast

Advertisements
Track Severe Weather on mobile